Northwest, Indiana
Current Conditions -  °F | °C
As of 8:35 AM on Monday 24 Nov 2014 (Local Time) from KDCY Reporting Station
Overcast Overcast  
Wind Chill:   Ceiling: 1500
Heat Index:   Visibility: 10mi
Dew Point:   Wind: 18mph
Humidity: 92%   Direction: 270°W
Pressure: 29.43"   Gusts: 32mph
Location:  38.6165°N, 86.6265°W
Report Text: KDCY 241335Z AUTO 27016G28KT 10SM OVC015 08/06 A2943 RMK AO2 T00750063
Loading
Personal Weather Stations






























Interactive Weather Map New forecast layout! Learn more

10-Day Weather Forecast

Advertisements
Track Severe Weather on mobile